Terminal Aerodrome Forecast
Issued by NWS Sterling, VA

Current Version | Previous Version | Graphics & Text | Print | Product List | Glossary On
Versions: 1 2 3 4 5 6 7 8 9 10 11 12 13
000
FTUS41 KLWX 242320
TAFMRB
TAF
KMRB 242320Z 2500/2524 17006KT P6SM SCT200
     FM250400 17005KT P6SM BKN040
     FM250900 17006KT P6SM BKN008
     FM251500 18010G17KT 6SM -SHRA OVC020
     FM251700 23011G19KT 6SM -SHRA OVC050
     FM252100 29017G26KT P6SM BKN100
     FM252300 29018G30KT P6SM SCT250=

USA.gov is the U.S. government's official web portal to all federal, state and local government web resources and services.